createdAt,value
2018-12-02T00:01:08.633Z,8.33
2018-12-02T00:03:38.107Z,5.47
2018-12-02T00:06:13.855Z,7.23
2018-12-02T00:08:46.885Z,5.23
2018-12-02T00:11:17.818Z,5.17
2018-12-02T00:13:49.379Z,5.70
2018-12-02T00:16:19.449Z,4.63
2018-12-02T00:18:49.505Z,5.97
2018-12-02T00:21:27.155Z,3.73
2018-12-02T00:23:58.070Z,3.10
2018-12-02T00:26:28.332Z,2.77
2018-12-02T00:28:59.539Z,4.03
2018-12-02T00:31:31.590Z,5.40
2018-12-02T00:34:01.600Z,3.57
2018-12-02T00:36:31.565Z,4.13
2018-12-02T00:39:01.147Z,3.83
2018-12-02T00:41:31.971Z,4.03
2018-12-02T00:44:11.518Z,2.67
2018-12-02T00:46:42.345Z,5.90
2018-12-02T00:49:12.675Z,4.10
2018-12-02T00:51:43.438Z,2.63
2018-12-02T00:57:13.854Z,2.37
2018-12-02T00:59:44.352Z,2.03
2018-12-02T01:02:14.714Z,2.87
2018-12-02T01:04:46.085Z,2.17
2018-12-02T01:07:17.240Z,7.57
2018-12-02T01:09:47.642Z,9.10
2018-12-02T01:18:19.736Z,1.23
2018-12-02T01:20:50.220Z,2.40
2018-12-02T01:29:25.974Z,2.10
2018-12-02T01:31:58.299Z,1.20
2018-12-02T01:34:28.124Z,1.60
2018-12-02T01:37:04.456Z,1.50
2018-12-02T01:42:29.802Z,7.37
2018-12-02T01:45:28.318Z,13.53
2018-12-02T01:57:02.102Z,7.63
2018-12-02T02:20:59.761Z,4.40
2018-12-02T02:23:41.848Z,3.27
2018-12-02T02:29:21.967Z,4.33
2018-12-02T02:32:10.112Z,5.57
2018-12-02T02:34:53.690Z,5.87
2018-12-02T02:37:37.849Z,3.23
2018-12-02T02:50:34.404Z,2.90
2018-12-02T02:53:18.503Z,2.77
2018-12-02T02:56:09.879Z,1.27
2018-12-02T02:58:59.836Z,1.93
2018-12-02T03:04:31.918Z,2.50
2018-12-02T03:07:05.408Z,2.13
2018-12-02T03:09:38.461Z,2.30
2018-12-02T03:15:25.712Z,4.23
2018-12-02T03:17:55.627Z,2.47
2018-12-02T03:24:24.840Z,1.77
2018-12-02T03:26:54.341Z,2.27
2018-12-02T03:29:29.469Z,1.87
2018-12-02T03:32:00.567Z,2.13
2018-12-02T03:34:30.664Z,2.77
2018-12-02T03:36:59.962Z,3.00
2018-12-02T03:39:30.091Z,2.23
2018-12-02T03:42:00.318Z,4.47
2018-12-02T03:44:59.369Z,4.27
2018-12-02T04:08:19.928Z,5.20
2018-12-02T04:10:49.381Z,3.43
2018-12-02T04:13:18.760Z,2.33
2018-12-02T04:15:49.513Z,2.03
2018-12-02T04:18:18.822Z,1.87
2018-12-02T04:20:48.218Z,2.23
2018-12-02T04:23:17.412Z,1.77
2018-12-02T04:25:47.633Z,3.90
2018-12-02T04:28:16.921Z,4.07
2018-12-02T04:30:46.558Z,1.80
2018-12-02T04:33:19.312Z,1.80
2018-12-02T04:35:49.147Z,1.53
2018-12-02T04:38:18.361Z,3.67
2018-12-02T04:40:47.588Z,5.78
2018-12-02T04:43:17.236Z,2.60
2018-12-02T04:45:46.763Z,2.10
2018-12-02T04:48:16.597Z,2.97
2018-12-02T04:50:46.072Z,2.03
2018-12-02T04:53:15.448Z,2.50
2018-12-02T04:55:44.967Z,2.73
2018-12-02T04:58:14.658Z,10.57
2018-12-02T05:00:44.249Z,8.90
2018-12-02T05:03:13.632Z,5.57
2018-12-02T05:05:43.095Z,4.27
2018-12-02T05:08:12.421Z,2.60
2018-12-02T05:10:42.208Z,1.60
2018-12-02T05:13:12.908Z,1.80
2018-12-02T05:15:42.145Z,5.10
2018-12-02T05:18:11.383Z,1.93
2018-12-02T05:20:43.056Z,3.03
2018-12-02T05:23:12.463Z,6.73
2018-12-02T05:25:41.657Z,2.33
2018-12-02T05:28:10.922Z,1.63
2018-12-02T05:30:46.133Z,0.90
2018-12-02T05:33:15.486Z,2.10
2018-12-02T05:35:45.585Z,4.20
2018-12-02T05:41:07.630Z,2.23
2018-12-02T05:43:36.967Z,2.17
2018-12-02T05:46:08.104Z,2.77
2018-12-02T05:48:37.631Z,3.77
2018-12-02T05:51:11.440Z,2.47
2018-12-02T05:53:42.540Z,1.87
2018-12-02T05:56:11.761Z,2.53
2018-12-02T05:58:42.031Z,3.50
2018-12-02T06:01:13.696Z,1.80
2018-12-02T06:03:42.955Z,1.20
2018-12-02T06:06:12.225Z,2.40
2018-12-02T06:08:41.780Z,1.57
2018-12-02T06:11:11.021Z,1.30
2018-12-02T06:13:40.162Z,1.73
2018-12-02T06:16:10.478Z,1.93
2018-12-02T06:18:39.646Z,2.27
2018-12-02T06:21:08.772Z,1.97
2018-12-02T06:23:40.228Z,1.10
2018-12-02T06:26:09.356Z,6.33
2018-12-02T06:28:38.508Z,3.73
2018-12-02T06:31:07.708Z,0.90
2018-12-02T06:33:36.782Z,5.27
2018-12-02T06:36:05.953Z,10.03
2018-12-02T06:38:35.806Z,4.17
2018-12-02T06:41:06.706Z,1.53
2018-12-02T06:43:35.852Z,2.27
2018-12-02T06:46:05.038Z,3.47
2018-12-02T06:48:34.153Z,2.27
2018-12-02T06:51:03.268Z,5.73
2018-12-02T06:53:32.639Z,4.77
2018-12-02T06:56:11.200Z,3.13
2018-12-02T06:58:58.396Z,3.40
2018-12-02T07:02:10.680Z,1.50
2018-12-02T07:04:41.500Z,1.30
2018-12-02T07:07:10.655Z,2.70
2018-12-02T07:09:39.851Z,4.37
2018-12-02T07:12:10.716Z,3.50
2018-12-02T07:14:39.832Z,3.03
2018-12-02T07:17:10.335Z,1.77
2018-12-02T07:19:49.472Z,3.03
2018-12-02T07:22:25.744Z,5.23
2018-12-02T07:24:57.982Z,4.13
2018-12-02T07:27:27.246Z,2.60
2018-12-02T07:29:58.030Z,8.10
2018-12-02T07:32:29.052Z,4.83
2018-12-02T07:34:58.401Z,3.30
2018-12-02T07:37:28.117Z,3.10
2018-12-02T07:40:14.772Z,4.43
2018-12-02T07:42:44.863Z,10.40
2018-12-02T07:45:14.191Z,6.93
2018-12-02T07:47:43.692Z,4.93
2018-12-02T07:50:12.960Z,3.60
2018-12-02T07:52:43.574Z,3.03
2018-12-02T07:55:13.855Z,3.40
2018-12-02T07:57:43.135Z,3.80
2018-12-02T08:00:14.135Z,2.93
2018-12-02T08:02:43.592Z,3.00
2018-12-02T08:05:16.375Z,2.93
2018-12-02T08:07:48.492Z,5.17
2018-12-02T08:10:20.696Z,4.17
2018-12-02T08:12:50.117Z,4.13
2018-12-02T08:15:20.422Z,3.50
2018-12-02T08:17:51.105Z,3.83
2018-12-02T08:20:20.793Z,6.03
2018-12-02T08:22:51.467Z,4.57
2018-12-02T08:25:20.429Z,6.53
2018-12-02T08:27:51.941Z,3.73
2018-12-02T08:30:32.695Z,8.93
2018-12-02T08:33:02.871Z,7.93
2018-12-02T08:35:32.440Z,4.70
2018-12-02T08:38:07.443Z,10.60
2018-12-02T08:40:36.897Z,5.70
2018-12-02T08:43:07.846Z,3.43
2018-12-02T08:45:39.054Z,4.83
2018-12-02T08:48:09.360Z,4.77
2018-12-02T08:50:39.300Z,5.17
2018-12-02T08:53:10.419Z,4.20
2018-12-02T08:55:44.056Z,3.70
2018-12-02T08:58:13.884Z,3.73
2018-12-02T09:00:44.279Z,4.80
2018-12-02T09:03:13.409Z,6.10
2018-12-02T09:05:44.069Z,6.27
2018-12-02T09:08:14.299Z,9.80
2018-12-02T09:10:45.177Z,9.27
2018-12-02T09:13:14.474Z,10.03
2018-12-02T09:15:44.499Z,10.60
2018-12-02T09:18:15.863Z,11.53
2018-12-02T09:20:52.511Z,10.60
2018-12-02T09:23:21.906Z,12.27
2018-12-02T09:25:52.296Z,12.37
2018-12-02T09:28:20.774Z,15.13
2018-12-02T09:30:50.048Z,14.57
2018-12-02T09:33:21.837Z,13.30
2018-12-02T09:35:51.460Z,11.07
2018-12-02T09:38:30.121Z,10.73
2018-12-02T09:40:59.795Z,11.23
2018-12-02T09:43:31.750Z,11.97
2018-12-02T09:46:04.096Z,22.17
2018-12-02T09:48:34.790Z,11.50
2018-12-02T09:51:11.705Z,12.60
2018-12-02T09:53:44.531Z,9.47
2018-12-02T09:56:21.305Z,9.67
2018-12-02T09:58:59.945Z,9.77
2018-12-02T10:01:30.837Z,12.60
2018-12-02T10:04:11.296Z,14.80
2018-12-02T10:09:19.904Z,14.67
2018-12-02T10:11:56.679Z,11.93
2018-12-02T10:14:27.408Z,11.23
2018-12-02T10:17:01.079Z,20.30
2018-12-02T10:19:32.674Z,16.13
2018-12-02T10:24:46.635Z,16.50
2018-12-02T10:27:42.006Z,8.27
2018-12-02T10:30:19.874Z,9.43
2018-12-02T10:32:50.824Z,8.60
2018-12-02T10:35:39.192Z,8.57
2018-12-02T10:38:08.811Z,11.40
2018-12-02T10:40:38.880Z,11.10
2018-12-02T10:43:09.118Z,16.57
2018-12-02T10:45:40.115Z,8.83
2018-12-02T10:48:14.464Z,15.77
2018-12-02T10:54:15.365Z,15.13
2018-12-02T10:57:09.891Z,16.20
2018-12-02T10:59:40.345Z,13.67
2018-12-02T11:02:21.320Z,16.97
2018-12-02T11:04:53.971Z,12.17
2018-12-02T11:07:30.690Z,13.60
2018-12-02T11:15:44.830Z,19.83
2018-12-02T11:18:19.029Z,31.03
2018-12-02T11:21:03.599Z,27.07
2018-12-02T11:23:41.052Z,37.03
2018-12-02T11:26:13.749Z,28.07
2018-12-02T11:28:52.173Z,36.57
2018-12-02T11:31:22.091Z,37.00
2018-12-02T11:33:51.760Z,38.53
2018-12-02T11:36:22.260Z,31.70
2018-12-02T11:38:51.769Z,44.37
2018-12-02T11:41:21.375Z,35.17
2018-12-02T11:43:51.431Z,38.93
2018-12-02T11:46:21.779Z,41.30
2018-12-02T11:48:52.481Z,28.23
2018-12-02T11:51:22.883Z,30.90
2018-12-02T11:53:53.311Z,24.93
2018-12-02T11:56:24.353Z,24.97
2018-12-02T11:58:53.746Z,23.03
2018-12-02T12:01:24.532Z,24.20
2018-12-02T12:04:01.249Z,19.23
2018-12-02T12:06:38.110Z,27.53
2018-12-02T12:09:09.235Z,22.67
2018-12-02T12:11:43.554Z,17.77
2018-12-02T12:14:16.005Z,20.17
2018-12-02T12:16:47.890Z,20.33
2018-12-02T12:19:17.503Z,13.40
2018-12-02T12:21:52.913Z,15.67
2018-12-02T12:24:33.949Z,13.30
2018-12-02T12:27:04.898Z,9.67
2018-12-02T12:29:37.260Z,12.03
2018-12-02T12:32:16.021Z,12.47
2018-12-02T12:37:50.207Z,36.80
2018-12-02T12:44:33.515Z,10.20
2018-12-02T12:52:47.378Z,11.73
2018-12-02T12:55:23.155Z,10.43
2018-12-02T12:57:55.159Z,19.13
2018-12-02T13:00:27.289Z,25.73
2018-12-02T13:14:31.415Z,25.20
2018-12-02T13:17:03.225Z,29.23
2018-12-02T13:19:37.404Z,25.83
2018-12-02T13:22:10.213Z,22.73
2018-12-02T13:27:21.417Z,19.37
2018-12-02T13:30:10.968Z,21.17
2018-12-02T13:32:45.478Z,25.40
2018-12-02T13:38:36.687Z,25.00
2018-12-02T13:41:19.458Z,27.67
2018-12-02T13:44:01.971Z,25.47
2018-12-02T13:49:36.413Z,21.83
2018-12-02T14:30:52.465Z,27.07
2018-12-02T14:33:37.082Z,24.10
2018-12-02T14:36:49.332Z,25.57
2018-12-02T14:39:42.989Z,23.53
2018-12-02T14:42:13.389Z,16.40
2018-12-02T14:44:47.845Z,18.37
2018-12-02T14:47:18.044Z,15.10
2018-12-02T14:50:02.467Z,15.40
2018-12-02T14:52:56.800Z,16.43
2018-12-02T14:55:34.441Z,12.77
2018-12-02T14:58:35.266Z,16.53
2018-12-02T15:01:19.310Z,13.43
2018-12-02T15:03:53.256Z,13.83
2018-12-02T15:09:16.660Z,19.03
2018-12-02T15:14:51.820Z,19.27
2018-12-02T15:17:26.388Z,22.50
2018-12-02T15:37:15.798Z,23.87
2018-12-02T15:39:45.889Z,27.27
2018-12-02T15:42:16.292Z,43.40
2018-12-02T15:44:46.366Z,36.33
2018-12-02T16:04:42.403Z,23.53
2018-12-02T16:07:21.814Z,25.13
2018-12-02T16:09:53.290Z,29.43
2018-12-02T16:29:42.731Z,23.83
2018-12-02T16:32:12.334Z,34.27
2018-12-02T16:34:43.669Z,24.00
2018-12-02T16:54:34.235Z,18.27
2018-12-02T16:57:18.509Z,26.77
2018-12-02T17:03:04.915Z,34.83
2018-12-02T17:05:39.330Z,25.50
2018-12-02T17:13:51.690Z,25.90
2018-12-02T17:19:34.088Z,16.13
2018-12-02T17:22:05.788Z,22.00
2018-12-02T17:24:53.047Z,35.67
2018-12-02T17:30:36.189Z,24.37
2018-12-02T17:33:06.172Z,20.67
2018-12-02T17:35:36.303Z,15.00
2018-12-02T17:49:41.800Z,18.80
2018-12-02T17:52:22.040Z,19.83
2018-12-02T17:54:52.347Z,14.10
2018-12-02T17:57:24.755Z,14.73
2018-12-02T18:26:44.666Z,18.87
2018-12-02T18:29:15.606Z,18.87
2018-12-02T18:31:47.259Z,25.27
2018-12-02T18:49:10.720Z,22.33
2018-12-02T18:51:41.366Z,18.60
2018-12-02T18:54:14.766Z,27.90
2018-12-02T19:05:55.504Z,26.13
2018-12-02T19:08:26.649Z,22.07
2018-12-02T19:14:09.795Z,23.47
2018-12-02T19:16:41.389Z,15.20
2018-12-02T19:22:21.484Z,16.20
2018-12-02T19:24:52.500Z,25.13
2018-12-02T19:30:05.749Z,29.03
2018-12-02T19:32:45.177Z,21.37
2018-12-02T19:35:31.346Z,23.30
2018-12-02T19:41:10.690Z,16.30
2018-12-02T19:44:11.231Z,25.90
2018-12-02T19:46:46.486Z,23.27
2018-12-02T19:49:21.445Z,16.93
2018-12-02T19:52:15.486Z,21.83
2018-12-02T19:54:52.613Z,23.10
2018-12-02T19:57:25.534Z,31.70
2018-12-02T20:00:03.713Z,21.47
2018-12-02T20:02:49.294Z,28.80
2018-12-02T20:05:21.627Z,15.60
2018-12-02T20:07:58.437Z,22.37
2018-12-02T20:10:48.595Z,20.30
2018-12-02T20:13:20.678Z,20.83
2018-12-02T20:16:03.869Z,19.20
2018-12-02T20:18:42.254Z,20.00
2018-12-02T20:26:52.350Z,12.77
2018-12-02T20:29:26.693Z,15.47
2018-12-02T20:32:01.175Z,14.33
2018-12-02T20:34:33.164Z,12.17
2018-12-02T20:37:04.463Z,18.67
2018-12-02T20:39:36.653Z,16.03
2018-12-02T20:42:07.802Z,14.17
2018-12-02T20:44:42.018Z,14.13
2018-12-02T20:47:14.077Z,14.80
2018-12-02T20:49:52.601Z,16.53
2018-12-02T20:52:25.223Z,12.93
2018-12-02T20:54:59.231Z,27.23
2018-12-02T20:57:39.589Z,22.63
2018-12-02T21:00:25.216Z,20.83
2018-12-02T21:03:13.776Z,20.20
2018-12-02T21:05:52.052Z,20.13
2018-12-02T21:08:29.117Z,23.27
2018-12-02T21:11:02.745Z,24.10
2018-12-02T21:13:33.783Z,30.13
2018-12-02T21:16:05.678Z,25.90
2018-12-02T21:18:36.399Z,25.03
2018-12-02T21:21:06.827Z,30.07
2018-12-02T21:23:36.996Z,37.63
2018-12-02T21:26:08.510Z,34.03
2018-12-02T21:28:46.416Z,31.03
2018-12-02T21:31:25.729Z,30.80
2018-12-02T21:33:58.542Z,37.30
2018-12-02T21:36:30.607Z,35.57
2018-12-02T21:39:01.291Z,31.90
2018-12-02T21:41:31.216Z,35.50
2018-12-02T21:44:03.575Z,36.33
2018-12-02T21:46:34.322Z,30.50
2018-12-02T21:51:58.678Z,32.87
2018-12-02T21:54:30.463Z,34.43
2018-12-02T21:57:06.572Z,49.20
2018-12-02T21:59:35.953Z,31.90
2018-12-02T22:02:05.435Z,32.80
2018-12-02T22:04:35.843Z,40.40
2018-12-02T22:07:08.358Z,45.03
2018-12-02T22:09:37.632Z,32.13
2018-12-02T22:12:07.575Z,33.70
2018-12-02T22:14:38.771Z,27.40
2018-12-02T22:17:09.260Z,41.17
2018-12-02T22:19:38.505Z,43.20
2018-12-02T22:22:10.108Z,36.47
2018-12-02T22:24:40.622Z,41.70
2018-12-02T22:27:12.565Z,39.53
2018-12-02T22:29:45.931Z,41.80
2018-12-02T22:32:33.256Z,43.67
2018-12-02T22:35:03.711Z,41.77
2018-12-02T22:37:34.828Z,47.80
2018-12-02T22:40:16.605Z,41.57
2018-12-02T22:42:46.418Z,58.27
2018-12-02T22:45:19.645Z,39.13
2018-12-02T22:47:49.839Z,26.70
2018-12-02T22:50:20.374Z,42.43
2018-12-02T22:52:57.471Z,39.20
2018-12-02T22:55:26.792Z,34.57
2018-12-02T22:57:56.166Z,38.70
2018-12-02T23:00:38.218Z,42.87
2018-12-02T23:03:13.126Z,39.77
2018-12-02T23:05:45.231Z,33.50
2018-12-02T23:08:20.696Z,35.00
2018-12-02T23:10:50.870Z,35.23
2018-12-02T23:13:23.675Z,32.67
2018-12-02T23:15:55.476Z,31.83
2018-12-02T23:18:27.384Z,33.20
2018-12-02T23:20:57.480Z,27.53
2018-12-02T23:23:28.145Z,31.23
2018-12-02T23:25:57.710Z,32.53
2018-12-02T23:28:28.950Z,37.83
2018-12-02T23:31:02.089Z,36.57
2018-12-02T23:33:32.561Z,32.00
2018-12-02T23:36:02.505Z,32.80
2018-12-02T23:38:33.235Z,33.17
2018-12-02T23:41:10.842Z,34.20
2018-12-02T23:43:40.735Z,34.07
2018-12-02T23:46:10.739Z,32.47
2018-12-02T23:48:54.283Z,27.27
2018-12-02T23:51:23.471Z,29.00
2018-12-02T23:54:01.575Z,33.43
2018-12-02T23:56:31.936Z,27.87
2018-12-02T23:59:01.334Z,30.60
